sensor_id;sensor_type;location;lat;lon;timestamp;P1;P2;P0
62631;PMS5003;48703;51.248;-0.546;2023-06-24T00:00:11;12.71;11.00;
62631;PMS5003;48703;51.248;-0.546;2023-06-24T00:03:12;14.77;12.81;
62631;PMS5003;48703;51.248;-0.546;2023-06-24T00:06:13;14.14;12.36;
62631;PMS5003;48703;51.248;-0.546;2023-06-24T00:09:14;13.35;12.29;
62631;PMS5003;48703;51.248;-0.546;2023-06-24T00:12:15;12.09;10.37;
62631;PMS5003;48703;51.248;-0.546;2023-06-24T00:15:17;12.49;12.28;
62631;PMS5003;48703;51.248;-0.546;2023-06-24T00:18:18;12.29;11.74;
62631;PMS5003;48703;51.248;-0.546;2023-06-24T00:21:19;13.37;12.23;
62631;PMS5003;48703;51.248;-0.546;2023-06-24T00:24:20;13.54;11.61;
62631;PMS5003;48703;51.248;-0.546;2023-06-24T00:27:22;12.33;11.71;
62631;PMS5003;48703;51.248;-0.546;2023-06-24T00:30:23;12.90;11.86;
62631;PMS5003;48703;51.248;-0.546;2023-06-24T00:33:24;14.13;12.73;
62631;PMS5003;48703;51.248;-0.546;2023-06-24T00:36:26;12.54;11.33;
62631;PMS5003;48703;51.248;-0.546;2023-06-24T00:39:27;10.63;10.51;
62631;PMS5003;48703;51.248;-0.546;2023-06-24T00:42:28;13.06;11.62;
62631;PMS5003;48703;51.248;-0.546;2023-06-24T00:45:29;14.84;13.62;
62631;PMS5003;48703;51.248;-0.546;2023-06-24T00:48:30;13.55;11.52;
62631;PMS5003;48703;51.248;-0.546;2023-06-24T00:51:32;14.50;13.63;
62631;PMS5003;48703;51.248;-0.546;2023-06-24T00:54:33;13.37;12.41;
62631;PMS5003;48703;51.248;-0.546;2023-06-24T00:57:34;11.20;11.13;
62631;PMS5003;48703;51.248;-0.546;2023-06-24T01:00:35;13.51;12.37;
62631;PMS5003;48703;51.248;-0.546;2023-06-24T01:03:36;14.70;13.09;
62631;PMS5003;48703;51.248;-0.546;2023-06-24T01:06:38;12.84;12.26;
62631;PMS5003;48703;51.248;-0.546;2023-06-24T01:09:39;15.67;14.49;
62631;PMS5003;48703;51.248;-0.546;2023-06-24T01:12:41;12.99;11.87;
62631;PMS5003;48703;51.248;-0.546;2023-06-24T01:15:42;13.49;12.31;
62631;PMS5003;48703;51.248;-0.546;2023-06-24T01:18:45;14.16;13.07;
62631;PMS5003;48703;51.248;-0.546;2023-06-24T01:21:48;13.91;13.10;
62631;PMS5003;48703;51.248;-0.546;2023-06-24T01:24:48;14.00;12.67;
62631;PMS5003;48703;51.248;-0.546;2023-06-24T01:27:52;12.44;11.13;
62631;PMS5003;48703;51.248;-0.546;2023-06-24T01:30:54;12.49;10.79;
62631;PMS5003;48703;51.248;-0.546;2023-06-24T01:33:52;14.13;12.66;
62631;PMS5003;48703;51.248;-0.546;2023-06-24T01:36:54;13.63;12.64;
62631;PMS5003;48703;51.248;-0.546;2023-06-24T01:39:56;13.04;12.26;
62631;PMS5003;48703;51.248;-0.546;2023-06-24T01:42:55;13.77;12.66;
62631;PMS5003;48703;51.248;-0.546;2023-06-24T01:45:55;14.51;13.32;
62631;PMS5003;48703;51.248;-0.546;2023-06-24T01:48:59;13.96;12.96;
62631;PMS5003;48703;51.248;-0.546;2023-06-24T01:51:58;13.77;12.03;
62631;PMS5003;48703;51.248;-0.546;2023-06-24T01:55:00;15.41;13.80;
62631;PMS5003;48703;51.248;-0.546;2023-06-24T01:58:01;14.84;13.44;
62631;PMS5003;48703;51.248;-0.546;2023-06-24T02:01:02;14.50;13.31;
62631;PMS5003;48703;51.248;-0.546;2023-06-24T02:04:04;12.89;11.44;
62631;PMS5003;48703;51.248;-0.546;2023-06-24T02:07:05;16.04;15.56;
62631;PMS5003;48703;51.248;-0.546;2023-06-24T02:10:07;16.33;13.99;
62631;PMS5003;48703;51.248;-0.546;2023-06-24T02:13:08;16.06;15.26;
62631;PMS5003;48703;51.248;-0.546;2023-06-24T02:16:09;13.97;12.66;
62631;PMS5003;48703;51.248;-0.546;2023-06-24T02:19:11;15.26;12.91;
62631;PMS5003;48703;51.248;-0.546;2023-06-24T02:22:12;17.36;16.43;
62631;PMS5003;48703;51.248;-0.546;2023-06-24T02:25:14;13.77;12.66;
62631;PMS5003;48703;51.248;-0.546;2023-06-24T02:28:15;14.03;13.34;
62631;PMS5003;48703;51.248;-0.546;2023-06-24T02:31:17;17.06;15.66;
62631;PMS5003;48703;51.248;-0.546;2023-06-24T02:34:18;16.96;14.80;
62631;PMS5003;48703;51.248;-0.546;2023-06-24T02:37:18;17.09;15.49;
62631;PMS5003;48703;51.248;-0.546;2023-06-24T02:40:20;18.09;16.94;
62631;PMS5003;48703;51.248;-0.546;2023-06-24T02:43:20;16.57;15.41;
62631;PMS5003;48703;51.248;-0.546;2023-06-24T02:46:21;18.00;15.81;
62631;PMS5003;48703;51.248;-0.546;2023-06-24T02:49:22;16.25;16.13;
62631;PMS5003;48703;51.248;-0.546;2023-06-24T02:52:23;16.73;16.21;
62631;PMS5003;48703;51.248;-0.546;2023-06-24T02:55:24;19.16;18.36;
62631;PMS5003;48703;51.248;-0.546;2023-06-24T02:58:25;18.78;17.62;
62631;PMS5003;48703;51.248;-0.546;2023-06-24T03:01:27;18.44;16.99;
62631;PMS5003;48703;51.248;-0.546;2023-06-24T03:04:29;19.01;16.61;
62631;PMS5003;48703;51.248;-0.546;2023-06-24T03:07:30;18.87;17.39;
62631;PMS5003;48703;51.248;-0.546;2023-06-24T03:10:32;20.39;18.07;
62631;PMS5003;48703;51.248;-0.546;2023-06-24T03:13:33;19.38;18.26;
62631;PMS5003;48703;51.248;-0.546;2023-06-24T03:16:34;16.69;15.69;
62631;PMS5003;48703;51.248;-0.546;2023-06-24T03:19:35;19.17;16.63;
62631;PMS5003;48703;51.248;-0.546;2023-06-24T03:22:36;17.39;15.87;
62631;PMS5003;48703;51.248;-0.546;2023-06-24T03:25:37;19.20;17.93;
62631;PMS5003;48703;51.248;-0.546;2023-06-24T03:28:39;21.39;20.03;
62631;PMS5003;48703;51.248;-0.546;2023-06-24T03:31:40;19.39;17.37;
62631;PMS5003;48703;51.248;-0.546;2023-06-24T03:34:42;19.41;17.96;
62631;PMS5003;48703;51.248;-0.546;2023-06-24T03:37:43;21.61;18.59;
62631;PMS5003;48703;51.248;-0.546;2023-06-24T03:40:44;19.13;17.56;
62631;PMS5003;48703;51.248;-0.546;2023-06-24T03:43:46;18.96;17.57;
62631;PMS5003;48703;51.248;-0.546;2023-06-24T03:46:46;21.35;18.93;
62631;PMS5003;48703;51.248;-0.546;2023-06-24T03:49:47;19.19;18.83;
62631;PMS5003;48703;51.248;-0.546;2023-06-24T03:52:48;16.74;15.57;
62631;PMS5003;48703;51.248;-0.546;2023-06-24T03:55:50;22.61;19.45;
62631;PMS5003;48703;51.248;-0.546;2023-06-24T03:58:51;17.90;16.64;
62631;PMS5003;48703;51.248;-0.546;2023-06-24T04:01:53;17.07;16.49;
62631;PMS5003;48703;51.248;-0.546;2023-06-24T04:04:54;21.11;17.69;
62631;PMS5003;48703;51.248;-0.546;2023-06-24T04:07:57;19.27;17.19;
62631;PMS5003;48703;51.248;-0.546;2023-06-24T04:10:58;21.63;19.17;
62631;PMS5003;48703;51.248;-0.546;2023-06-24T04:13:59;19.27;17.57;
62631;PMS5003;48703;51.248;-0.546;2023-06-24T04:17:01;21.12;19.33;
62631;PMS5003;48703;51.248;-0.546;2023-06-24T04:20:02;21.22;19.52;
62631;PMS5003;48703;51.248;-0.546;2023-06-24T04:23:04;20.77;18.23;
62631;PMS5003;48703;51.248;-0.546;2023-06-24T04:26:06;22.86;20.81;
62631;PMS5003;48703;51.248;-0.546;2023-06-24T04:29:07;20.96;17.70;
62631;PMS5003;48703;51.248;-0.546;2023-06-24T04:32:08;21.39;19.83;
62631;PMS5003;48703;51.248;-0.546;2023-06-24T04:35:09;21.37;19.76;
62631;PMS5003;48703;51.248;-0.546;2023-06-24T04:38:11;20.07;18.20;
62631;PMS5003;48703;51.248;-0.546;2023-06-24T04:41:11;22.36;19.90;
62631;PMS5003;48703;51.248;-0.546;2023-06-24T04:44:13;22.59;20.36;
62631;PMS5003;48703;51.248;-0.546;2023-06-24T04:47:14;20.65;19.03;
62631;PMS5003;48703;51.248;-0.546;2023-06-24T04:50:16;23.64;21.72;
62631;PMS5003;48703;51.248;-0.546;2023-06-24T04:53:17;23.10;21.00;
62631;PMS5003;48703;51.248;-0.546;2023-06-24T04:56:18;23.49;20.94;
62631;PMS5003;48703;51.248;-0.546;2023-06-24T04:59:19;24.03;21.14;
62631;PMS5003;48703;51.248;-0.546;2023-06-24T05:02:20;23.73;19.21;
62631;PMS5003;48703;51.248;-0.546;2023-06-24T05:05:21;23.91;20.57;
62631;PMS5003;48703;51.248;-0.546;2023-06-24T05:08:22;22.01;20.97;
62631;PMS5003;48703;51.248;-0.546;2023-06-24T05:11:23;23.54;20.31;
62631;PMS5003;48703;51.248;-0.546;2023-06-24T05:14:24;22.94;20.45;
62631;PMS5003;48703;51.248;-0.546;2023-06-24T05:17:26;19.24;18.97;
62631;PMS5003;48703;51.248;-0.546;2023-06-24T05:20:27;22.71;20.83;
62631;PMS5003;48703;51.248;-0.546;2023-06-24T05:23:27;23.41;20.81;
62631;PMS5003;48703;51.248;-0.546;2023-06-24T05:26:28;25.45;22.99;
62631;PMS5003;48703;51.248;-0.546;2023-06-24T05:29:30;25.29;21.47;
62631;PMS5003;48703;51.248;-0.546;2023-06-24T05:32:31;21.32;19.70;
62631;PMS5003;48703;51.248;-0.546;2023-06-24T05:35:33;23.64;20.42;
62631;PMS5003;48703;51.248;-0.546;2023-06-24T05:38:34;24.54;21.93;
62631;PMS5003;48703;51.248;-0.546;2023-06-24T05:41:35;21.23;20.06;
62631;PMS5003;48703;51.248;-0.546;2023-06-24T05:44:35;20.25;19.13;
62631;PMS5003;48703;51.248;-0.546;2023-06-24T05:47:37;23.72;20.48;
62631;PMS5003;48703;51.248;-0.546;2023-06-24T05:50:38;22.57;20.17;
62631;PMS5003;48703;51.248;-0.546;2023-06-24T05:53:39;24.54;22.32;
62631;PMS5003;48703;51.248;-0.546;2023-06-24T05:56:40;20.97;17.93;
62631;PMS5003;48703;51.248;-0.546;2023-06-24T05:59:42;24.52;21.94;
62631;PMS5003;48703;51.248;-0.546;2023-06-24T06:02:43;19.24;18.20;
62631;PMS5003;48703;51.248;-0.546;2023-06-24T06:05:44;21.94;18.64;
62631;PMS5003;48703;51.248;-0.546;2023-06-24T06:08:46;22.46;20.31;
62631;PMS5003;48703;51.248;-0.546;2023-06-24T06:11:47;20.17;18.80;
62631;PMS5003;48703;51.248;-0.546;2023-06-24T06:14:48;19.22;16.52;
62631;PMS5003;48703;51.248;-0.546;2023-06-24T06:17:50;17.64;15.59;
62631;PMS5003;48703;51.248;-0.546;2023-06-24T06:20:50;16.90;16.19;
62631;PMS5003;48703;51.248;-0.546;2023-06-24T06:23:51;16.09;15.91;
62631;PMS5003;48703;51.248;-0.546;2023-06-24T06:26:52;18.00;16.74;
62631;PMS5003;48703;51.248;-0.546;2023-06-24T06:29:53;16.35;15.22;
62631;PMS5003;48703;51.248;-0.546;2023-06-24T06:32:54;17.61;15.29;
62631;PMS5003;48703;51.248;-0.546;2023-06-24T06:35:55;19.11;16.04;
62631;PMS5003;48703;51.248;-0.546;2023-06-24T06:38:57;16.16;14.39;
62631;PMS5003;48703;51.248;-0.546;2023-06-24T06:41:58;14.01;12.79;
62631;PMS5003;48703;51.248;-0.546;2023-06-24T06:44:59;13.74;12.84;
62631;PMS5003;48703;51.248;-0.546;2023-06-24T06:48:01;17.86;15.77;
62631;PMS5003;48703;51.248;-0.546;2023-06-24T06:51:03;17.30;14.90;
62631;PMS5003;48703;51.248;-0.546;2023-06-24T06:54:03;15.66;13.00;
62631;PMS5003;48703;51.248;-0.546;2023-06-24T06:57:05;15.70;15.01;
62631;PMS5003;48703;51.248;-0.546;2023-06-24T07:00:07;17.57;17.06;
62631;PMS5003;48703;51.248;-0.546;2023-06-24T07:03:08;54.61;47.80;
62631;PMS5003;48703;51.248;-0.546;2023-06-24T07:06:09;20.97;19.01;
62631;PMS5003;48703;51.248;-0.546;2023-06-24T07:09:10;29.38;27.74;
62631;PMS5003;48703;51.248;-0.546;2023-06-24T07:12:11;18.36;17.50;
62631;PMS5003;48703;51.248;-0.546;2023-06-24T07:15:13;13.04;12.50;
62631;PMS5003;48703;51.248;-0.546;2023-06-24T07:18:14;14.39;12.29;
62631;PMS5003;48703;51.248;-0.546;2023-06-24T07:21:15;13.71;12.71;
62631;PMS5003;48703;51.248;-0.546;2023-06-24T07:24:16;13.69;12.51;
62631;PMS5003;48703;51.248;-0.546;2023-06-24T07:27:17;11.87;11.61;
62631;PMS5003;48703;51.248;-0.546;2023-06-24T07:30:18;11.81;11.77;
62631;PMS5003;48703;51.248;-0.546;2023-06-24T07:33:19;11.93;11.09;
62631;PMS5003;48703;51.248;-0.546;2023-06-24T07:36:21;12.09;10.87;
62631;PMS5003;48703;51.248;-0.546;2023-06-24T07:39:22;12.74;10.97;
62631;PMS5003;48703;51.248;-0.546;2023-06-24T07:42:23;12.84;11.97;
62631;PMS5003;48703;51.248;-0.546;2023-06-24T07:45:25;11.91;10.64;
62631;PMS5003;48703;51.248;-0.546;2023-06-24T07:48:26;13.29;11.49;
62631;PMS5003;48703;51.248;-0.546;2023-06-24T07:51:28;10.73;9.73;
62631;PMS5003;48703;51.248;-0.546;2023-06-24T07:54:29;11.49;10.67;
62631;PMS5003;48703;51.248;-0.546;2023-06-24T07:57:30;11.80;10.61;
62631;PMS5003;48703;51.248;-0.546;2023-06-24T08:00:31;11.07;9.60;
62631;PMS5003;48703;51.248;-0.546;2023-06-24T08:03:33;11.41;10.77;
62631;PMS5003;48703;51.248;-0.546;2023-06-24T08:06:34;11.94;10.53;
62631;PMS5003;48703;51.248;-0.546;2023-06-24T08:09:35;10.86;10.20;
62631;PMS5003;48703;51.248;-0.546;2023-06-24T08:12:37;12.09;9.91;
62631;PMS5003;48703;51.248;-0.546;2023-06-24T08:15:38;9.96;9.49;
62631;PMS5003;48703;51.248;-0.546;2023-06-24T08:18:39;10.22;9.36;
62631;PMS5003;48703;51.248;-0.546;2023-06-24T08:21:41;8.99;8.97;
62631;PMS5003;48703;51.248;-0.546;2023-06-24T08:24:42;10.03;10.03;
62631;PMS5003;48703;51.248;-0.546;2023-06-24T08:27:44;9.16;8.43;
62631;PMS5003;48703;51.248;-0.546;2023-06-24T08:30:45;9.47;8.91;
62631;PMS5003;48703;51.248;-0.546;2023-06-24T08:33:46;9.46;8.86;
62631;PMS5003;48703;51.248;-0.546;2023-06-24T08:36:47;11.36;8.96;
62631;PMS5003;48703;51.248;-0.546;2023-06-24T08:39:49;10.24;9.13;
62631;PMS5003;48703;51.248;-0.546;2023-06-24T08:42:50;10.96;9.03;
62631;PMS5003;48703;51.248;-0.546;2023-06-24T08:45:52;8.70;8.27;
62631;PMS5003;48703;51.248;-0.546;2023-06-24T08:48:54;8.97;7.84;
62631;PMS5003;48703;51.248;-0.546;2023-06-24T08:51:56;10.00;8.44;
62631;PMS5003;48703;51.248;-0.546;2023-06-24T08:54:56;10.66;9.37;
62631;PMS5003;48703;51.248;-0.546;2023-06-24T08:57:57;10.73;8.67;
62631;PMS5003;48703;51.248;-0.546;2023-06-24T09:00:59;9.01;8.59;
62631;PMS5003;48703;51.248;-0.546;2023-06-24T09:04:00;8.93;7.63;
62631;PMS5003;48703;51.248;-0.546;2023-06-24T09:07:01;8.16;6.89;
62631;PMS5003;48703;51.248;-0.546;2023-06-24T09:10:02;8.41;6.99;
62631;PMS5003;48703;51.248;-0.546;2023-06-24T09:13:04;7.37;7.03;
62631;PMS5003;48703;51.248;-0.546;2023-06-24T09:16:11;8.62;7.88;
62631;PMS5003;48703;51.248;-0.546;2023-06-24T09:19:06;7.50;6.71;
62631;PMS5003;48703;51.248;-0.546;2023-06-24T09:22:07;6.94;6.60;
62631;PMS5003;48703;51.248;-0.546;2023-06-24T09:25:08;7.43;6.94;
62631;PMS5003;48703;51.248;-0.546;2023-06-24T09:28:11;8.53;8.23;
62631;PMS5003;48703;51.248;-0.546;2023-06-24T09:31:11;6.83;5.66;
62631;PMS5003;48703;51.248;-0.546;2023-06-24T09:34:12;7.06;6.41;
62631;PMS5003;48703;51.248;-0.546;2023-06-24T09:37:20;8.24;6.79;
62631;PMS5003;48703;51.248;-0.546;2023-06-24T09:40:15;6.63;5.87;
62631;PMS5003;48703;51.248;-0.546;2023-06-24T09:43:19;7.51;6.43;
62631;PMS5003;48703;51.248;-0.546;2023-06-24T09:46:18;7.23;6.73;
62631;PMS5003;48703;51.248;-0.546;2023-06-24T09:49:19;7.49;5.81;
62631;PMS5003;48703;51.248;-0.546;2023-06-24T09:52:20;6.21;4.80;
62631;PMS5003;48703;51.248;-0.546;2023-06-24T09:55:23;6.09;5.74;
62631;PMS5003;48703;51.248;-0.546;2023-06-24T09:58:23;4.93;4.43;
62631;PMS5003;48703;51.248;-0.546;2023-06-24T10:01:24;5.10;4.74;
62631;PMS5003;48703;51.248;-0.546;2023-06-24T10:04:26;4.03;3.97;
62631;PMS5003;48703;51.248;-0.546;2023-06-24T10:07:27;4.49;3.83;
62631;PMS5003;48703;51.248;-0.546;2023-06-24T10:10:28;5.80;4.74;
62631;PMS5003;48703;51.248;-0.546;2023-06-24T10:13:30;3.04;2.91;
62631;PMS5003;48703;51.248;-0.546;2023-06-24T10:16:31;5.20;4.77;
62631;PMS5003;48703;51.248;-0.546;2023-06-24T10:19:37;2.44;2.44;
62631;PMS5003;48703;51.248;-0.546;2023-06-24T10:22:34;2.39;1.84;
62631;PMS5003;48703;51.248;-0.546;2023-06-24T10:25:35;4.61;3.77;
62631;PMS5003;48703;51.248;-0.546;2023-06-24T10:29:44;3.76;2.99;
62631;PMS5003;48703;51.248;-0.546;2023-06-24T10:31:54;3.66;3.66;
62631;PMS5003;48703;51.248;-0.546;2023-06-24T10:34:40;4.56;3.97;
62631;PMS5003;48703;51.248;-0.546;2023-06-24T10:37:54;3.37;2.74;
62631;PMS5003;48703;51.248;-0.546;2023-06-24T10:40:42;3.77;3.77;
62631;PMS5003;48703;51.248;-0.546;2023-06-24T10:43:43;3.94;3.43;
62631;PMS5003;48703;51.248;-0.546;2023-06-24T10:46:48;4.77;3.93;
62631;PMS5003;48703;51.248;-0.546;2023-06-24T10:49:46;3.39;3.26;
62631;PMS5003;48703;51.248;-0.546;2023-06-24T10:52:47;4.19;3.80;
62631;PMS5003;48703;51.248;-0.546;2023-06-24T10:55:48;3.80;3.56;
62631;PMS5003;48703;51.248;-0.546;2023-06-24T10:58:54;4.69;4.11;
62631;PMS5003;48703;51.248;-0.546;2023-06-24T11:01:51;3.70;3.67;
62631;PMS5003;48703;51.248;-0.546;2023-06-24T11:04:53;4.89;4.63;
62631;PMS5003;48703;51.248;-0.546;2023-06-24T11:07:54;3.77;3.74;
62631;PMS5003;48703;51.248;-0.546;2023-06-24T11:10:55;5.47;4.67;
62631;PMS5003;48703;51.248;-0.546;2023-06-24T11:13:56;5.80;4.64;
62631;PMS5003;48703;51.248;-0.546;2023-06-24T11:17:00;4.09;3.80;
62631;PMS5003;48703;51.248;-0.546;2023-06-24T11:19:59;5.16;4.21;
62631;PMS5003;48703;51.248;-0.546;2023-06-24T11:23:00;4.71;4.39;
62631;PMS5003;48703;51.248;-0.546;2023-06-24T11:26:02;3.77;3.53;
62631;PMS5003;48703;51.248;-0.546;2023-06-24T11:29:08;4.81;4.40;
62631;PMS5003;48703;51.248;-0.546;2023-06-24T11:32:06;5.16;5.13;
62631;PMS5003;48703;51.248;-0.546;2023-06-24T11:35:06;7.06;6.69;
62631;PMS5003;48703;51.248;-0.546;2023-06-24T11:38:07;5.46;5.46;
62631;PMS5003;48703;51.248;-0.546;2023-06-24T11:41:08;6.03;5.26;
62631;PMS5003;48703;51.248;-0.546;2023-06-24T11:44:09;4.09;4.09;
62631;PMS5003;48703;51.248;-0.546;2023-06-24T11:47:11;5.81;5.53;
62631;PMS5003;48703;51.248;-0.546;2023-06-24T11:50:12;5.74;5.54;
62631;PMS5003;48703;51.248;-0.546;2023-06-24T11:53:13;6.19;5.99;
62631;PMS5003;48703;51.248;-0.546;2023-06-24T11:56:14;4.54;4.54;
62631;PMS5003;48703;51.248;-0.546;2023-06-24T11:59:16;6.31;5.73;
62631;PMS5003;48703;51.248;-0.546;2023-06-24T12:02:17;7.80;6.21;
62631;PMS5003;48703;51.248;-0.546;2023-06-24T12:05:19;7.27;5.89;
62631;PMS5003;48703;51.248;-0.546;2023-06-24T12:08:20;6.07;5.19;
62631;PMS5003;48703;51.248;-0.546;2023-06-24T12:11:21;5.64;5.31;
62631;PMS5003;48703;51.248;-0.546;2023-06-24T12:14:23;5.21;4.84;
62631;PMS5003;48703;51.248;-0.546;2023-06-24T12:17:24;6.81;6.30;
62631;PMS5003;48703;51.248;-0.546;2023-06-24T12:20:25;6.09;5.67;
62631;PMS5003;48703;51.248;-0.546;2023-06-24T12:23:27;6.21;5.03;
62631;PMS5003;48703;51.248;-0.546;2023-06-24T12:26:28;6.40;5.86;
62631;PMS5003;48703;51.248;-0.546;2023-06-24T12:29:29;6.96;5.96;
62631;PMS5003;48703;51.248;-0.546;2023-06-24T12:32:31;6.03;5.73;
62631;PMS5003;48703;51.248;-0.546;2023-06-24T12:35:32;5.27;5.11;
62631;PMS5003;48703;51.248;-0.546;2023-06-24T12:38:33;4.31;4.31;
62631;PMS5003;48703;51.248;-0.546;2023-06-24T12:41:34;5.86;5.09;
62631;PMS5003;48703;51.248;-0.546;2023-06-24T12:44:35;4.81;4.81;
62631;PMS5003;48703;51.248;-0.546;2023-06-24T12:47:37;4.49;4.49;
62631;PMS5003;48703;51.248;-0.546;2023-06-24T12:50:38;4.70;4.70;
62631;PMS5003;48703;51.248;-0.546;2023-06-24T12:53:39;3.66;3.66;
62631;PMS5003;48703;51.248;-0.546;2023-06-24T12:56:40;5.07;5.07;
62631;PMS5003;48703;51.248;-0.546;2023-06-24T12:59:42;4.73;4.51;
62631;PMS5003;48703;51.248;-0.546;2023-06-24T13:02:43;6.06;5.39;
62631;PMS5003;48703;51.248;-0.546;2023-06-24T13:05:44;6.41;5.49;
62631;PMS5003;48703;51.248;-0.546;2023-06-24T13:08:46;5.56;5.56;
62631;PMS5003;48703;51.248;-0.546;2023-06-24T13:11:47;6.61;5.59;
62631;PMS5003;48703;51.248;-0.546;2023-06-24T13:14:48;8.31;6.94;
62631;PMS5003;48703;51.248;-0.546;2023-06-24T13:17:50;7.89;7.01;
62631;PMS5003;48703;51.248;-0.546;2023-06-24T13:20:51;6.96;6.10;
62631;PMS5003;48703;51.248;-0.546;2023-06-24T13:23:52;5.84;5.66;
62631;PMS5003;48703;51.248;-0.546;2023-06-24T13:26:53;7.13;6.20;
62631;PMS5003;48703;51.248;-0.546;2023-06-24T13:29:55;5.80;5.59;
62631;PMS5003;48703;51.248;-0.546;2023-06-24T13:32:55;8.40;7.03;
62631;PMS5003;48703;51.248;-0.546;2023-06-24T13:35:57;7.00;6.44;
62631;PMS5003;48703;51.248;-0.546;2023-06-24T13:38:58;7.66;7.19;
62631;PMS5003;48703;51.248;-0.546;2023-06-24T13:42:00;6.94;6.83;
62631;PMS5003;48703;51.248;-0.546;2023-06-24T13:45:01;7.94;7.94;
62631;PMS5003;48703;51.248;-0.546;2023-06-24T13:48:02;7.26;6.44;
62631;PMS5003;48703;51.248;-0.546;2023-06-24T13:51:03;8.42;7.41;
62631;PMS5003;48703;51.248;-0.546;2023-06-24T13:54:04;6.26;5.94;
62631;PMS5003;48703;51.248;-0.546;2023-06-24T13:57:06;8.83;7.63;
62631;PMS5003;48703;51.248;-0.546;2023-06-24T14:00:07;8.49;7.70;
62631;PMS5003;48703;51.248;-0.546;2023-06-24T14:03:08;8.39;7.40;
62631;PMS5003;48703;51.248;-0.546;2023-06-24T14:06:09;8.67;7.56;
62631;PMS5003;48703;51.248;-0.546;2023-06-24T14:09:10;7.14;5.81;
62631;PMS5003;48703;51.248;-0.546;2023-06-24T14:12:12;5.69;5.60;
62631;PMS5003;48703;51.248;-0.546;2023-06-24T14:15:13;8.13;7.66;
62631;PMS5003;48703;51.248;-0.546;2023-06-24T14:18:14;7.34;6.74;
62631;PMS5003;48703;51.248;-0.546;2023-06-24T14:21:16;8.13;7.49;
62631;PMS5003;48703;51.248;-0.546;2023-06-24T14:24:17;7.71;7.07;
62631;PMS5003;48703;51.248;-0.546;2023-06-24T14:27:18;9.14;8.24;
62631;PMS5003;48703;51.248;-0.546;2023-06-24T14:30:19;8.69;7.51;
62631;PMS5003;48703;51.248;-0.546;2023-06-24T14:33:20;9.67;7.89;
62631;PMS5003;48703;51.248;-0.546;2023-06-24T14:36:22;8.93;7.29;
62631;PMS5003;48703;51.248;-0.546;2023-06-24T14:39:23;9.33;7.51;
62631;PMS5003;48703;51.248;-0.546;2023-06-24T14:42:24;6.47;6.39;
62631;PMS5003;48703;51.248;-0.546;2023-06-24T14:45:25;7.41;6.94;
62631;PMS5003;48703;51.248;-0.546;2023-06-24T14:48:27;8.41;7.37;
62631;PMS5003;48703;51.248;-0.546;2023-06-24T14:51:28;7.93;7.20;
62631;PMS5003;48703;51.248;-0.546;2023-06-24T14:54:29;7.26;7.23;
62631;PMS5003;48703;51.248;-0.546;2023-06-24T14:57:31;8.29;7.39;
62631;PMS5003;48703;51.248;-0.546;2023-06-24T15:00:32;8.29;7.54;
62631;PMS5003;48703;51.248;-0.546;2023-06-24T15:03:33;7.77;7.24;
62631;PMS5003;48703;51.248;-0.546;2023-06-24T15:06:34;6.53;6.40;
62631;PMS5003;48703;51.248;-0.546;2023-06-24T15:09:36;7.73;6.03;
62631;PMS5003;48703;51.248;-0.546;2023-06-24T15:12:37;7.61;6.77;
62631;PMS5003;48703;51.248;-0.546;2023-06-24T15:15:38;7.13;7.03;
62631;PMS5003;48703;51.248;-0.546;2023-06-24T15:18:47;8.13;7.04;
62631;PMS5003;48703;51.248;-0.546;2023-06-24T15:21:41;8.00;7.34;
62631;PMS5003;48703;51.248;-0.546;2023-06-24T15:24:42;6.67;5.67;
62631;PMS5003;48703;51.248;-0.546;2023-06-24T15:27:43;5.94;5.94;
62631;PMS5003;48703;51.248;-0.546;2023-06-24T15:30:45;8.50;7.24;
62631;PMS5003;48703;51.248;-0.546;2023-06-24T15:33:45;5.90;5.90;
62631;PMS5003;48703;51.248;-0.546;2023-06-24T15:36:47;7.04;6.66;
62631;PMS5003;48703;51.248;-0.546;2023-06-24T15:39:48;6.07;5.76;
62631;PMS5003;48703;51.248;-0.546;2023-06-24T15:42:49;7.66;6.96;
62631;PMS5003;48703;51.248;-0.546;2023-06-24T15:45:51;6.67;6.24;
62631;PMS5003;48703;51.248;-0.546;2023-06-24T15:48:52;5.41;5.37;
62631;PMS5003;48703;51.248;-0.546;2023-06-24T15:51:53;7.61;6.67;
62631;PMS5003;48703;51.248;-0.546;2023-06-24T15:54:54;6.19;5.97;
62631;PMS5003;48703;51.248;-0.546;2023-06-24T15:57:56;6.73;6.39;
62631;PMS5003;48703;51.248;-0.546;2023-06-24T16:00:57;7.33;6.20;
62631;PMS5003;48703;51.248;-0.546;2023-06-24T16:03:58;6.87;5.80;
62631;PMS5003;48703;51.248;-0.546;2023-06-24T16:06:59;5.87;5.73;
62631;PMS5003;48703;51.248;-0.546;2023-06-24T16:10:01;6.87;6.27;
62631;PMS5003;48703;51.248;-0.546;2023-06-24T16:13:02;7.10;5.39;
62631;PMS5003;48703;51.248;-0.546;2023-06-24T16:16:03;5.80;5.44;
62631;PMS5003;48703;51.248;-0.546;2023-06-24T16:19:04;5.81;5.54;
62631;PMS5003;48703;51.248;-0.546;2023-06-24T16:22:06;5.34;5.00;
62631;PMS5003;48703;51.248;-0.546;2023-06-24T16:25:07;6.26;5.43;
62631;PMS5003;48703;51.248;-0.546;2023-06-24T16:28:08;5.30;5.30;
62631;PMS5003;48703;51.248;-0.546;2023-06-24T16:31:09;6.74;5.70;
62631;PMS5003;48703;51.248;-0.546;2023-06-24T16:34:11;6.01;5.20;
62631;PMS5003;48703;51.248;-0.546;2023-06-24T16:37:12;7.10;5.93;
62631;PMS5003;48703;51.248;-0.546;2023-06-24T16:40:13;6.50;5.99;
62631;PMS5003;48703;51.248;-0.546;2023-06-24T16:43:14;5.40;5.20;
62631;PMS5003;48703;51.248;-0.546;2023-06-24T16:46:15;5.83;5.19;
62631;PMS5003;48703;51.248;-0.546;2023-06-24T16:49:16;7.09;6.13;
62631;PMS5003;48703;51.248;-0.546;2023-06-24T16:52:18;5.74;5.74;
62631;PMS5003;48703;51.248;-0.546;2023-06-24T16:55:19;5.44;5.44;
62631;PMS5003;48703;51.248;-0.546;2023-06-24T16:58:20;6.07;5.61;
62631;PMS5003;48703;51.248;-0.546;2023-06-24T17:01:21;6.60;6.00;
62631;PMS5003;48703;51.248;-0.546;2023-06-24T17:04:23;6.86;6.06;
62631;PMS5003;48703;51.248;-0.546;2023-06-24T17:07:24;5.66;5.16;
62631;PMS5003;48703;51.248;-0.546;2023-06-24T17:10:25;5.86;5.73;
62631;PMS5003;48703;51.248;-0.546;2023-06-24T17:13:26;6.53;6.29;
62631;PMS5003;48703;51.248;-0.546;2023-06-24T17:16:28;8.61;6.80;
62631;PMS5003;48703;51.248;-0.546;2023-06-24T17:19:29;6.54;5.41;
62631;PMS5003;48703;51.248;-0.546;2023-06-24T17:22:30;5.79;4.81;
62631;PMS5003;48703;51.248;-0.546;2023-06-24T17:25:32;7.56;6.59;
62631;PMS5003;48703;51.248;-0.546;2023-06-24T17:28:33;5.57;5.57;
62631;PMS5003;48703;51.248;-0.546;2023-06-24T17:31:34;6.06;5.44;
62631;PMS5003;48703;51.248;-0.546;2023-06-24T17:34:35;5.84;5.56;
62631;PMS5003;48703;51.248;-0.546;2023-06-24T17:37:36;4.70;4.70;
62631;PMS5003;48703;51.248;-0.546;2023-06-24T17:40:39;6.16;6.16;
62631;PMS5003;48703;51.248;-0.546;2023-06-24T17:43:39;6.54;5.29;
62631;PMS5003;48703;51.248;-0.546;2023-06-24T17:46:40;5.90;5.06;
62631;PMS5003;48703;51.248;-0.546;2023-06-24T17:49:41;4.94;4.59;
62631;PMS5003;48703;51.248;-0.546;2023-06-24T17:52:43;5.67;5.17;
62631;PMS5003;48703;51.248;-0.546;2023-06-24T17:55:44;7.11;6.83;
62631;PMS5003;48703;51.248;-0.546;2023-06-24T17:58:45;7.68;7.68;
62631;PMS5003;48703;51.248;-0.546;2023-06-24T18:01:46;6.14;5.67;
62631;PMS5003;48703;51.248;-0.546;2023-06-24T18:04:47;4.70;4.70;
62631;PMS5003;48703;51.248;-0.546;2023-06-24T18:07:48;4.96;4.96;
62631;PMS5003;48703;51.248;-0.546;2023-06-24T18:10:50;3.40;3.40;
62631;PMS5003;48703;51.248;-0.546;2023-06-24T18:13:51;4.20;3.73;